sensor_id;sensor_type;location;lat;lon;timestamp;P1;durP1;ratioP1;P2;durP2;ratioP2
71975;SDS011;68326;52.124;5.424;2024-02-16T00:01:40;4.40;;;1.70;;
71975;SDS011;68326;52.124;5.424;2024-02-16T00:04:07;2.83;;;1.27;;
71975;SDS011;68326;52.124;5.424;2024-02-16T00:06:34;3.55;;;1.40;;
71975;SDS011;68326;52.124;5.424;2024-02-16T00:09:00;3.38;;;1.65;;
71975;SDS011;68326;52.124;5.424;2024-02-16T00:11:27;4.82;;;1.30;;
71975;SDS011;68326;52.124;5.424;2024-02-16T00:13:55;3.37;;;1.30;;
71975;SDS011;68326;52.124;5.424;2024-02-16T00:16:21;3.03;;;1.38;;
71975;SDS011;68326;52.124;5.424;2024-02-16T00:18:48;3.60;;;1.40;;
71975;SDS011;68326;52.124;5.424;2024-02-16T00:21:15;2.55;;;1.38;;
71975;SDS011;68326;52.124;5.424;2024-02-16T00:23:43;3.35;;;1.23;;
71975;SDS011;68326;52.124;5.424;2024-02-16T00:26:10;2.97;;;1.60;;
71975;SDS011;68326;52.124;5.424;2024-02-16T00:28:37;5.22;;;1.60;;
71975;SDS011;68326;52.124;5.424;2024-02-16T00:31:03;3.22;;;1.50;;
71975;SDS011;68326;52.124;5.424;2024-02-16T00:33:32;2.22;;;1.20;;
71975;SDS011;68326;52.124;5.424;2024-02-16T00:36:00;2.78;;;1.42;;
71975;SDS011;68326;52.124;5.424;2024-02-16T00:38:26;3.40;;;1.50;;
71975;SDS011;68326;52.124;5.424;2024-02-16T00:40:53;3.58;;;1.38;;
71975;SDS011;68326;52.124;5.424;2024-02-16T00:43:19;3.33;;;1.52;;
71975;SDS011;68326;52.124;5.424;2024-02-16T00:45:46;3.33;;;1.10;;
71975;SDS011;68326;52.124;5.424;2024-02-16T00:48:14;2.63;;;1.40;;
71975;SDS011;68326;52.124;5.424;2024-02-16T00:50:41;2.60;;;1.13;;
71975;SDS011;68326;52.124;5.424;2024-02-16T00:53:09;2.65;;;1.45;;
71975;SDS011;68326;52.124;5.424;2024-02-16T00:55:36;3.33;;;1.75;;
71975;SDS011;68326;52.124;5.424;2024-02-16T00:58:03;5.07;;;1.55;;
71975;SDS011;68326;52.124;5.424;2024-02-16T01:00:30;4.10;;;1.67;;
71975;SDS011;68326;52.124;5.424;2024-02-16T01:02:57;5.17;;;1.57;;
71975;SDS011;68326;52.124;5.424;2024-02-16T01:05:24;3.15;;;1.42;;
71975;SDS011;68326;52.124;5.424;2024-02-16T01:07:50;5.43;;;1.75;;
71975;SDS011;68326;52.124;5.424;2024-02-16T01:10:17;4.63;;;1.65;;
71975;SDS011;68326;52.124;5.424;2024-02-16T01:12:43;5.18;;;1.50;;
71975;SDS011;68326;52.124;5.424;2024-02-16T01:15:10;3.60;;;1.57;;
71975;SDS011;68326;52.124;5.424;2024-02-16T01:17:37;2.85;;;1.33;;
71975;SDS011;68326;52.124;5.424;2024-02-16T01:20:05;2.95;;;1.45;;
71975;SDS011;68326;52.124;5.424;2024-02-16T01:22:37;5.47;;;1.73;;
71975;SDS011;68326;52.124;5.424;2024-02-16T01:25:04;3.13;;;1.33;;
71975;SDS011;68326;52.124;5.424;2024-02-16T01:27:31;4.17;;;1.43;;
71975;SDS011;68326;52.124;5.424;2024-02-16T01:29:58;3.55;;;1.70;;
71975;SDS011;68326;52.124;5.424;2024-02-16T01:32:26;3.45;;;1.40;;
71975;SDS011;68326;52.124;5.424;2024-02-16T01:34:52;6.22;;;1.48;;
71975;SDS011;68326;52.124;5.424;2024-02-16T01:37:19;3.30;;;1.50;;
71975;SDS011;68326;52.124;5.424;2024-02-16T01:39:45;3.77;;;1.50;;
71975;SDS011;68326;52.124;5.424;2024-02-16T01:42:12;2.95;;;1.45;;
71975;SDS011;68326;52.124;5.424;2024-02-16T01:44:39;3.78;;;1.38;;
71975;SDS011;68326;52.124;5.424;2024-02-16T01:47:05;5.20;;;1.58;;
71975;SDS011;68326;52.124;5.424;2024-02-16T01:49:32;4.82;;;1.77;;
71975;SDS011;68326;52.124;5.424;2024-02-16T01:52:00;4.80;;;1.40;;
71975;SDS011;68326;52.124;5.424;2024-02-16T01:54:27;5.30;;;1.60;;
71975;SDS011;68326;52.124;5.424;2024-02-16T01:56:53;5.55;;;1.77;;
71975;SDS011;68326;52.124;5.424;2024-02-16T01:59:21;4.22;;;1.67;;
71975;SDS011;68326;52.124;5.424;2024-02-16T02:01:48;2.88;;;1.48;;
71975;SDS011;68326;52.124;5.424;2024-02-16T02:04:15;3.17;;;1.50;;
71975;SDS011;68326;52.124;5.424;2024-02-16T02:06:42;3.30;;;1.60;;
71975;SDS011;68326;52.124;5.424;2024-02-16T02:09:09;5.05;;;1.65;;
71975;SDS011;68326;52.124;5.424;2024-02-16T02:11:35;3.33;;;1.48;;
71975;SDS011;68326;52.124;5.424;2024-02-16T02:14:02;4.32;;;1.83;;
71975;SDS011;68326;52.124;5.424;2024-02-16T02:16:28;6.37;;;1.43;;
71975;SDS011;68326;52.124;5.424;2024-02-16T02:19:03;2.92;;;1.45;;
71975;SDS011;68326;52.124;5.424;2024-02-16T02:21:29;4.72;;;1.70;;
71975;SDS011;68326;52.124;5.424;2024-02-16T02:23:56;4.50;;;1.70;;
71975;SDS011;68326;52.124;5.424;2024-02-16T02:26:23;3.95;;;1.70;;
71975;SDS011;68326;52.124;5.424;2024-02-16T02:28:49;4.03;;;1.60;;
71975;SDS011;68326;52.124;5.424;2024-02-16T02:31:16;2.70;;;1.50;;
71975;SDS011;68326;52.124;5.424;2024-02-16T02:33:43;5.75;;;1.75;;
71975;SDS011;68326;52.124;5.424;2024-02-16T02:36:09;4.05;;;1.27;;
71975;SDS011;68326;52.124;5.424;2024-02-16T02:38:36;3.35;;;1.60;;
71975;SDS011;68326;52.124;5.424;2024-02-16T02:41:03;3.90;;;1.50;;
71975;SDS011;68326;52.124;5.424;2024-02-16T02:43:33;2.85;;;1.77;;
71975;SDS011;68326;52.124;5.424;2024-02-16T02:46:00;3.53;;;1.60;;
71975;SDS011;68326;52.124;5.424;2024-02-16T02:48:27;6.00;;;1.50;;
71975;SDS011;68326;52.124;5.424;2024-02-16T02:50:54;4.22;;;1.50;;
71975;SDS011;68326;52.124;5.424;2024-02-16T02:53:20;4.07;;;1.77;;
71975;SDS011;68326;52.124;5.424;2024-02-16T02:55:48;4.05;;;1.63;;
71975;SDS011;68326;52.124;5.424;2024-02-16T02:58:14;3.42;;;1.98;;
71975;SDS011;68326;52.124;5.424;2024-02-16T03:00:41;5.70;;;1.50;;
71975;SDS011;68326;52.124;5.424;2024-02-16T03:03:07;4.22;;;1.60;;
71975;SDS011;68326;52.124;5.424;2024-02-16T03:05:34;2.80;;;1.50;;
71975;SDS011;68326;52.124;5.424;2024-02-16T03:08:00;4.30;;;1.42;;
71975;SDS011;68326;52.124;5.424;2024-02-16T03:10:28;2.33;;;1.40;;
71975;SDS011;68326;52.124;5.424;2024-02-16T03:13:01;3.75;;;1.52;;
71975;SDS011;68326;52.124;5.424;2024-02-16T03:15:29;3.30;;;1.58;;
71975;SDS011;68326;52.124;5.424;2024-02-16T03:17:55;4.70;;;1.40;;
71975;SDS011;68326;52.124;5.424;2024-02-16T03:20:22;5.60;;;1.63;;
71975;SDS011;68326;52.124;5.424;2024-02-16T03:22:49;3.70;;;1.52;;
71975;SDS011;68326;52.124;5.424;2024-02-16T03:25:15;2.63;;;1.58;;
71975;SDS011;68326;52.124;5.424;2024-02-16T03:27:42;6.35;;;1.70;;
71975;SDS011;68326;52.124;5.424;2024-02-16T03:30:09;5.87;;;1.60;;
71975;SDS011;68326;52.124;5.424;2024-02-16T03:32:37;4.85;;;1.70;;
71975;SDS011;68326;52.124;5.424;2024-02-16T03:35:04;3.30;;;1.77;;
71975;SDS011;68326;52.124;5.424;2024-02-16T03:37:30;2.70;;;1.70;;
71975;SDS011;68326;52.124;5.424;2024-02-16T03:39:57;4.50;;;1.48;;
71975;SDS011;68326;52.124;5.424;2024-02-16T03:42:23;4.37;;;1.47;;
71975;SDS011;68326;52.124;5.424;2024-02-16T03:44:50;4.53;;;1.48;;
71975;SDS011;68326;52.124;5.424;2024-02-16T03:47:16;4.30;;;1.70;;
71975;SDS011;68326;52.124;5.424;2024-02-16T03:49:43;4.13;;;1.90;;
71975;SDS011;68326;52.124;5.424;2024-02-16T03:52:10;4.22;;;2.05;;
71975;SDS011;68326;52.124;5.424;2024-02-16T03:54:36;4.40;;;1.90;;
71975;SDS011;68326;52.124;5.424;2024-02-16T03:57:03;3.78;;;1.40;;
71975;SDS011;68326;52.124;5.424;2024-02-16T03:59:31;2.83;;;1.48;;
71975;SDS011;68326;52.124;5.424;2024-02-16T04:01:57;3.17;;;1.50;;
71975;SDS011;68326;52.124;5.424;2024-02-16T04:04:24;3.80;;;1.45;;
71975;SDS011;68326;52.124;5.424;2024-02-16T04:06:51;3.07;;;1.40;;
71975;SDS011;68326;52.124;5.424;2024-02-16T04:09:17;2.65;;;1.48;;
71975;SDS011;68326;52.124;5.424;2024-02-16T04:11:45;4.50;;;1.63;;
71975;SDS011;68326;52.124;5.424;2024-02-16T04:14:12;3.15;;;1.95;;
71975;SDS011;68326;52.124;5.424;2024-02-16T04:16:39;3.97;;;1.70;;
71975;SDS011;68326;52.124;5.424;2024-02-16T04:19:08;3.17;;;1.57;;
71975;SDS011;68326;52.124;5.424;2024-02-16T04:21:35;5.00;;;1.55;;
71975;SDS011;68326;52.124;5.424;2024-02-16T04:24:01;4.15;;;2.03;;
71975;SDS011;68326;52.124;5.424;2024-02-16T04:26:29;3.33;;;1.67;;
71975;SDS011;68326;52.124;5.424;2024-02-16T04:28:55;4.97;;;1.80;;
71975;SDS011;68326;52.124;5.424;2024-02-16T04:31:22;3.50;;;1.60;;
71975;SDS011;68326;52.124;5.424;2024-02-16T04:33:48;5.88;;;1.55;;
71975;SDS011;68326;52.124;5.424;2024-02-16T04:36:15;4.43;;;1.48;;
71975;SDS011;68326;52.124;5.424;2024-02-16T04:38:42;3.63;;;1.55;;
71975;SDS011;68326;52.124;5.424;2024-02-16T04:41:09;3.47;;;1.65;;
71975;SDS011;68326;52.124;5.424;2024-02-16T04:43:35;2.50;;;1.37;;
71975;SDS011;68326;52.124;5.424;2024-02-16T04:46:02;4.15;;;1.55;;
71975;SDS011;68326;52.124;5.424;2024-02-16T04:48:29;4.93;;;1.35;;
71975;SDS011;68326;52.124;5.424;2024-02-16T04:50:55;3.88;;;1.80;;
71975;SDS011;68326;52.124;5.424;2024-02-16T04:53:22;2.97;;;1.50;;
71975;SDS011;68326;52.124;5.424;2024-02-16T04:55:48;2.87;;;1.47;;
71975;SDS011;68326;52.124;5.424;2024-02-16T04:58:15;5.47;;;1.52;;
71975;SDS011;68326;52.124;5.424;2024-02-16T05:00:42;5.55;;;1.58;;
71975;SDS011;68326;52.124;5.424;2024-02-16T05:03:09;3.38;;;1.50;;
71975;SDS011;68326;52.124;5.424;2024-02-16T05:05:36;4.00;;;1.65;;
71975;SDS011;68326;52.124;5.424;2024-02-16T05:08:02;3.77;;;1.50;;
71975;SDS011;68326;52.124;5.424;2024-02-16T05:10:29;3.20;;;1.50;;
71975;SDS011;68326;52.124;5.424;2024-02-16T05:12:55;4.85;;;1.63;;
71975;SDS011;68326;52.124;5.424;2024-02-16T05:15:24;3.55;;;1.67;;
71975;SDS011;68326;52.124;5.424;2024-02-16T05:17:51;3.88;;;1.90;;
71975;SDS011;68326;52.124;5.424;2024-02-16T05:20:17;4.07;;;1.67;;
71975;SDS011;68326;52.124;5.424;2024-02-16T05:22:46;3.55;;;1.42;;
71975;SDS011;68326;52.124;5.424;2024-02-16T05:25:13;2.40;;;1.60;;
71975;SDS011;68326;52.124;5.424;2024-02-16T05:27:40;4.13;;;1.60;;
71975;SDS011;68326;52.124;5.424;2024-02-16T05:30:09;4.35;;;1.60;;
71975;SDS011;68326;52.124;5.424;2024-02-16T05:32:37;5.43;;;2.07;;
71975;SDS011;68326;52.124;5.424;2024-02-16T05:35:04;3.28;;;1.80;;
71975;SDS011;68326;52.124;5.424;2024-02-16T05:37:41;3.17;;;2.17;;
71975;SDS011;68326;52.124;5.424;2024-02-16T05:40:19;4.45;;;1.58;;
71975;SDS011;68326;52.124;5.424;2024-02-16T05:42:53;3.50;;;1.48;;
71975;SDS011;68326;52.124;5.424;2024-02-16T05:45:20;4.83;;;1.63;;
71975;SDS011;68326;52.124;5.424;2024-02-16T05:47:50;4.85;;;1.58;;
71975;SDS011;68326;52.124;5.424;2024-02-16T05:50:17;3.40;;;1.67;;
71975;SDS011;68326;52.124;5.424;2024-02-16T05:52:44;5.88;;;1.65;;
71975;SDS011;68326;52.124;5.424;2024-02-16T05:55:10;4.00;;;1.70;;
71975;SDS011;68326;52.124;5.424;2024-02-16T05:57:37;4.23;;;1.53;;
71975;SDS011;68326;52.124;5.424;2024-02-16T06:00:04;4.72;;;1.73;;
71975;SDS011;68326;52.124;5.424;2024-02-16T06:02:33;4.43;;;1.67;;
71975;SDS011;68326;52.124;5.424;2024-02-16T06:05:00;3.55;;;1.70;;
71975;SDS011;68326;52.124;5.424;2024-02-16T06:07:29;3.53;;;1.80;;
71975;SDS011;68326;52.124;5.424;2024-02-16T06:09:56;4.67;;;1.70;;
71975;SDS011;68326;52.124;5.424;2024-02-16T06:12:23;5.40;;;1.80;;
71975;SDS011;68326;52.124;5.424;2024-02-16T06:14:50;3.28;;;1.25;;
71975;SDS011;68326;52.124;5.424;2024-02-16T06:17:20;4.57;;;1.90;;
71975;SDS011;68326;52.124;5.424;2024-02-16T06:19:46;3.70;;;1.67;;
71975;SDS011;68326;52.124;5.424;2024-02-16T06:22:13;4.00;;;1.50;;
71975;SDS011;68326;52.124;5.424;2024-02-16T06:24:39;3.67;;;1.48;;
71975;SDS011;68326;52.124;5.424;2024-02-16T06:27:06;4.03;;;1.48;;
71975;SDS011;68326;52.124;5.424;2024-02-16T06:29:34;3.65;;;1.60;;
71975;SDS011;68326;52.124;5.424;2024-02-16T06:32:01;4.85;;;1.83;;
71975;SDS011;68326;52.124;5.424;2024-02-16T06:34:29;3.53;;;1.43;;
71975;SDS011;68326;52.124;5.424;2024-02-16T06:36:57;5.40;;;1.48;;
71975;SDS011;68326;52.124;5.424;2024-02-16T06:39:23;7.10;;;2.05;;
71975;SDS011;68326;52.124;5.424;2024-02-16T06:41:50;6.88;;;1.90;;
71975;SDS011;68326;52.124;5.424;2024-02-16T06:44:17;5.95;;;1.88;;
71975;SDS011;68326;52.124;5.424;2024-02-16T06:46:48;3.17;;;1.70;;
71975;SDS011;68326;52.124;5.424;2024-02-16T06:49:15;2.65;;;1.65;;
71975;SDS011;68326;52.124;5.424;2024-02-16T06:51:41;3.83;;;1.83;;
71975;SDS011;68326;52.124;5.424;2024-02-16T06:54:08;5.70;;;1.80;;
71975;SDS011;68326;52.124;5.424;2024-02-16T06:56:35;4.57;;;1.80;;
71975;SDS011;68326;52.124;5.424;2024-02-16T06:59:02;4.30;;;1.77;;
71975;SDS011;68326;52.124;5.424;2024-02-16T07:01:28;3.08;;;1.30;;
71975;SDS011;68326;52.124;5.424;2024-02-16T07:03:55;3.80;;;1.95;;
71975;SDS011;68326;52.124;5.424;2024-02-16T07:06:22;3.33;;;1.55;;
71975;SDS011;68326;52.124;5.424;2024-02-16T07:08:49;4.35;;;1.80;;
71975;SDS011;68326;52.124;5.424;2024-02-16T07:11:16;5.10;;;1.43;;
71975;SDS011;68326;52.124;5.424;2024-02-16T07:13:43;6.70;;;1.60;;
71975;SDS011;68326;52.124;5.424;2024-02-16T07:16:09;3.05;;;1.40;;
71975;SDS011;68326;52.124;5.424;2024-02-16T07:18:36;5.28;;;1.90;;
71975;SDS011;68326;52.124;5.424;2024-02-16T07:21:03;6.18;;;1.90;;
71975;SDS011;68326;52.124;5.424;2024-02-16T07:23:30;2.70;;;1.40;;
71975;SDS011;68326;52.124;5.424;2024-02-16T07:25:56;3.00;;;1.30;;
71975;SDS011;68326;52.124;5.424;2024-02-16T07:28:24;3.25;;;1.50;;
71975;SDS011;68326;52.124;5.424;2024-02-16T07:30:52;5.45;;;1.77;;
71975;SDS011;68326;52.124;5.424;2024-02-16T07:33:19;3.70;;;1.80;;
71975;SDS011;68326;52.124;5.424;2024-02-16T07:35:46;4.47;;;1.57;;
71975;SDS011;68326;52.124;5.424;2024-02-16T07:38:13;5.45;;;2.03;;
71975;SDS011;68326;52.124;5.424;2024-02-16T07:40:40;4.13;;;1.75;;
71975;SDS011;68326;52.124;5.424;2024-02-16T07:43:06;5.78;;;1.90;;
71975;SDS011;68326;52.124;5.424;2024-02-16T07:45:34;4.85;;;2.00;;
71975;SDS011;68326;52.124;5.424;2024-02-16T07:48:01;5.10;;;1.77;;
71975;SDS011;68326;52.124;5.424;2024-02-16T07:50:31;4.43;;;1.40;;
71975;SDS011;68326;52.124;5.424;2024-02-16T07:52:58;3.30;;;1.70;;
71975;SDS011;68326;52.124;5.424;2024-02-16T07:55:24;4.68;;;1.70;;
71975;SDS011;68326;52.124;5.424;2024-02-16T07:57:51;4.53;;;1.90;;
71975;SDS011;68326;52.124;5.424;2024-02-16T08:00:18;4.27;;;1.83;;
71975;SDS011;68326;52.124;5.424;2024-02-16T08:02:45;2.90;;;1.50;;
71975;SDS011;68326;52.124;5.424;2024-02-16T08:05:11;3.20;;;1.58;;
71975;SDS011;68326;52.124;5.424;2024-02-16T08:07:39;4.72;;;1.80;;
71975;SDS011;68326;52.124;5.424;2024-02-16T08:10:09;4.07;;;1.90;;
71975;SDS011;68326;52.124;5.424;2024-02-16T08:12:36;8.13;;;1.63;;
71975;SDS011;68326;52.124;5.424;2024-02-16T08:15:03;5.32;;;1.90;;
71975;SDS011;68326;52.124;5.424;2024-02-16T08:17:33;4.85;;;1.40;;
71975;SDS011;68326;52.124;5.424;2024-02-16T08:20:00;3.20;;;1.52;;
71975;SDS011;68326;52.124;5.424;2024-02-16T08:22:27;3.08;;;2.03;;
71975;SDS011;68326;52.124;5.424;2024-02-16T08:24:54;5.17;;;1.60;;
71975;SDS011;68326;52.124;5.424;2024-02-16T08:27:20;3.70;;;1.63;;
71975;SDS011;68326;52.124;5.424;2024-02-16T08:29:47;3.85;;;1.67;;
71975;SDS011;68326;52.124;5.424;2024-02-16T08:32:14;5.18;;;1.98;;
71975;SDS011;68326;52.124;5.424;2024-02-16T08:34:42;5.07;;;1.80;;
71975;SDS011;68326;52.124;5.424;2024-02-16T08:37:09;5.03;;;1.80;;
71975;SDS011;68326;52.124;5.424;2024-02-16T08:39:37;5.70;;;2.15;;
71975;SDS011;68326;52.124;5.424;2024-02-16T08:42:04;4.72;;;1.83;;
71975;SDS011;68326;52.124;5.424;2024-02-16T08:44:31;4.30;;;2.10;;
71975;SDS011;68326;52.124;5.424;2024-02-16T08:46:57;4.93;;;2.47;;
71975;SDS011;68326;52.124;5.424;2024-02-16T08:49:24;6.03;;;2.10;;
71975;SDS011;68326;52.124;5.424;2024-02-16T08:51:51;4.22;;;1.70;;
71975;SDS011;68326;52.124;5.424;2024-02-16T08:54:17;4.65;;;1.85;;
71975;SDS011;68326;52.124;5.424;2024-02-16T08:56:45;4.80;;;2.10;;
71975;SDS011;68326;52.124;5.424;2024-02-16T08:59:12;6.18;;;1.70;;
71975;SDS011;68326;52.124;5.424;2024-02-16T09:01:38;4.20;;;1.97;;
71975;SDS011;68326;52.124;5.424;2024-02-16T09:04:08;5.05;;;2.33;;
71975;SDS011;68326;52.124;5.424;2024-02-16T09:06:35;6.72;;;2.28;;
71975;SDS011;68326;52.124;5.424;2024-02-16T09:09:01;5.47;;;1.85;;
71975;SDS011;68326;52.124;5.424;2024-02-16T09:11:30;5.57;;;2.53;;
71975;SDS011;68326;52.124;5.424;2024-02-16T09:13:57;5.20;;;1.80;;
71975;SDS011;68326;52.124;5.424;2024-02-16T09:16:23;5.07;;;1.98;;
71975;SDS011;68326;52.124;5.424;2024-02-16T09:18:51;5.80;;;2.00;;
71975;SDS011;68326;52.124;5.424;2024-02-16T09:21:17;5.65;;;2.42;;
71975;SDS011;68326;52.124;5.424;2024-02-16T09:23:44;5.70;;;2.53;;
71975;SDS011;68326;52.124;5.424;2024-02-16T09:26:11;4.77;;;2.03;;
71975;SDS011;68326;52.124;5.424;2024-02-16T09:28:41;5.95;;;2.70;;
71975;SDS011;68326;52.124;5.424;2024-02-16T09:31:08;9.48;;;2.65;;
71975;SDS011;68326;52.124;5.424;2024-02-16T09:33:35;4.40;;;2.60;;
71975;SDS011;68326;52.124;5.424;2024-02-16T09:36:02;3.97;;;2.30;;
71975;SDS011;68326;52.124;5.424;2024-02-16T09:38:31;8.63;;;2.50;;
71975;SDS011;68326;52.124;5.424;2024-02-16T09:40:58;5.20;;;2.38;;
71975;SDS011;68326;52.124;5.424;2024-02-16T09:43:25;7.78;;;2.17;;
71975;SDS011;68326;52.124;5.424;2024-02-16T09:45:56;7.28;;;2.70;;
71975;SDS011;68326;52.124;5.424;2024-02-16T09:48:25;6.05;;;1.95;;
71975;SDS011;68326;52.124;5.424;2024-02-16T09:50:56;4.83;;;2.47;;
71975;SDS011;68326;52.124;5.424;2024-02-16T09:53:26;4.03;;;2.25;;
71975;SDS011;68326;52.124;5.424;2024-02-16T09:55:53;9.13;;;2.60;;
71975;SDS011;68326;52.124;5.424;2024-02-16T09:58:20;6.35;;;2.42;;
71975;SDS011;68326;52.124;5.424;2024-02-16T10:00:51;6.57;;;2.70;;
71975;SDS011;68326;52.124;5.424;2024-02-16T10:03:30;4.87;;;2.50;;
71975;SDS011;68326;52.124;5.424;2024-02-16T10:06:05;5.28;;;2.85;;
71975;SDS011;68326;52.124;5.424;2024-02-16T10:08:49;7.28;;;2.38;;
71975;SDS011;68326;52.124;5.424;2024-02-16T10:11:20;8.10;;;2.78;;
71975;SDS011;68326;52.124;5.424;2024-02-16T10:13:54;6.10;;;3.80;;
71975;SDS011;68326;52.124;5.424;2024-02-16T10:16:22;6.20;;;2.93;;
71975;SDS011;68326;52.124;5.424;2024-02-16T10:18:49;6.00;;;2.88;;
71975;SDS011;68326;52.124;5.424;2024-02-16T10:21:26;6.90;;;2.53;;
71975;SDS011;68326;52.124;5.424;2024-02-16T10:24:20;6.10;;;2.55;;
71975;SDS011;68326;52.124;5.424;2024-02-16T10:26:47;8.95;;;3.28;;
71975;SDS011;68326;52.124;5.424;2024-02-16T10:29:14;4.50;;;2.40;;
71975;SDS011;68326;52.124;5.424;2024-02-16T10:31:45;5.55;;;2.92;;
71975;SDS011;68326;52.124;5.424;2024-02-16T10:34:11;5.90;;;2.72;;
71975;SDS011;68326;52.124;5.424;2024-02-16T10:36:38;6.05;;;3.03;;
71975;SDS011;68326;52.124;5.424;2024-02-16T10:39:07;6.05;;;2.67;;
71975;SDS011;68326;52.124;5.424;2024-02-16T10:41:45;7.03;;;3.30;;
71975;SDS011;68326;52.124;5.424;2024-02-16T10:44:13;5.15;;;2.70;;
71975;SDS011;68326;52.124;5.424;2024-02-16T10:46:39;7.55;;;2.95;;
71975;SDS011;68326;52.124;5.424;2024-02-16T10:49:06;7.15;;;3.75;;
71975;SDS011;68326;52.124;5.424;2024-02-16T10:51:42;7.20;;;3.40;;
71975;SDS011;68326;52.124;5.424;2024-02-16T10:54:12;6.20;;;2.73;;
71975;SDS011;68326;52.124;5.424;2024-02-16T10:56:44;6.40;;;3.20;;
71975;SDS011;68326;52.124;5.424;2024-02-16T10:59:11;7.95;;;3.25;;
71975;SDS011;68326;52.124;5.424;2024-02-16T11:01:41;6.03;;;3.47;;
71975;SDS011;68326;52.124;5.424;2024-02-16T11:04:13;7.03;;;3.63;;
71975;SDS011;68326;52.124;5.424;2024-02-16T11:06:45;8.63;;;3.33;;
71975;SDS011;68326;52.124;5.424;2024-02-16T11:09:23;9.02;;;4.00;;
71975;SDS011;68326;52.124;5.424;2024-02-16T11:11:53;8.35;;;3.78;;
71975;SDS011;68326;52.124;5.424;2024-02-16T11:14:21;8.10;;;3.78;;
71975;SDS011;68326;52.124;5.424;2024-02-16T11:16:53;9.77;;;4.53;;
71975;SDS011;68326;52.124;5.424;2024-02-16T11:19:21;8.63;;;4.20;;
71975;SDS011;68326;52.124;5.424;2024-02-16T11:21:58;7.05;;;4.22;;
71975;SDS011;68326;52.124;5.424;2024-02-16T11:24:31;7.35;;;4.32;;
71975;SDS011;68326;52.124;5.424;2024-02-16T11:27:01;7.15;;;4.20;;
71975;SDS011;68326;52.124;5.424;2024-02-16T11:29:32;8.75;;;4.25;;
71975;SDS011;68326;52.124;5.424;2024-02-16T11:32:03;7.93;;;4.00;;
71975;SDS011;68326;52.124;5.424;2024-02-16T11:34:31;6.43;;;3.88;;
71975;SDS011;68326;52.124;5.424;2024-02-16T11:37:00;7.13;;;3.85;;
71975;SDS011;68326;52.124;5.424;2024-02-16T11:39:28;6.88;;;4.43;;
71975;SDS011;68326;52.124;5.424;2024-02-16T11:42:09;8.02;;;4.32;;
71975;SDS011;68326;52.124;5.424;2024-02-16T11:44:39;10.43;;;4.40;;
71975;SDS011;68326;52.124;5.424;2024-02-16T11:47:09;8.52;;;4.47;;
71975;SDS011;68326;52.124;5.424;2024-02-16T11:49:39;6.82;;;4.88;;
71975;SDS011;68326;52.124;5.424;2024-02-16T11:52:07;11.05;;;4.68;;
71975;SDS011;68326;52.124;5.424;2024-02-16T11:54:34;7.05;;;4.03;;
71975;SDS011;68326;52.124;5.424;2024-02-16T11:57:03;9.67;;;4.30;;
71975;SDS011;68326;52.124;5.424;2024-02-16T11:59:30;7.82;;;4.50;;
71975;SDS011;68326;52.124;5.424;2024-02-16T12:01:58;7.97;;;4.28;;
71975;SDS011;68326;52.124;5.424;2024-02-16T12:04:26;6.93;;;4.05;;
71975;SDS011;68326;52.124;5.424;2024-02-16T12:07:00;10.57;;;4.75;;
71975;SDS011;68326;52.124;5.424;2024-02-16T12:09:31;7.83;;;4.53;;
71975;SDS011;68326;52.124;5.424;2024-02-16T12:12:01;10.25;;;4.72;;
71975;SDS011;68326;52.124;5.424;2024-02-16T12:14:29;8.73;;;3.53;;
71975;SDS011;68326;52.124;5.424;2024-02-16T12:16:56;8.60;;;4.43;;
71975;SDS011;68326;52.124;5.424;2024-02-16T12:19:23;8.75;;;4.20;;
71975;SDS011;68326;52.124;5.424;2024-02-16T12:21:51;8.33;;;3.80;;
71975;SDS011;68326;52.124;5.424;2024-02-16T12:24:19;12.27;;;3.97;;
71975;SDS011;68326;52.124;5.424;2024-02-16T12:26:46;6.78;;;3.95;;
71975;SDS011;68326;52.124;5.424;2024-02-16T12:29:13;6.88;;;3.40;;
71975;SDS011;68326;52.124;5.424;2024-02-16T12:31:46;5.45;;;3.30;;
71975;SDS011;68326;52.124;5.424;2024-02-16T12:34:15;6.87;;;3.23;;
71975;SDS011;68326;52.124;5.424;2024-02-16T12:36:42;7.93;;;3.10;;
71975;SDS011;68326;52.124;5.424;2024-02-16T12:39:16;6.22;;;2.85;;
71975;SDS011;68326;52.124;5.424;2024-02-16T12:41:43;3.13;;;2.00;;
71975;SDS011;68326;52.124;5.424;2024-02-16T12:44:10;4.13;;;1.60;;
71975;SDS011;68326;52.124;5.424;2024-02-16T12:46:37;2.90;;;1.50;;
71975;SDS011;68326;52.124;5.424;2024-02-16T12:49:05;3.50;;;1.60;;
71975;SDS011;68326;52.124;5.424;2024-02-16T12:51:32;3.53;;;1.20;;
71975;SDS011;68326;52.124;5.424;2024-02-16T12:53:59;3.65;;;1.30;;
71975;SDS011;68326;52.124;5.424;2024-02-16T12:56:30;3.42;;;1.10;;
71975;SDS011;68326;52.124;5.424;2024-02-16T12:58:56;3.07;;;1.20;;
71975;SDS011;68326;52.124;5.424;2024-02-16T13:01:26;3.58;;;1.35;;
71975;SDS011;68326;52.124;5.424;2024-02-16T13:03:53;2.40;;;1.00;;
71975;SDS011;68326;52.124;5.424;2024-02-16T13:06:19;2.22;;;1.02;;
71975;SDS011;68326;52.124;5.424;2024-02-16T13:08:52;2.13;;;0.70;;
71975;SDS011;68326;52.124;5.424;2024-02-16T13:11:19;1.73;;;0.90;;
71975;SDS011;68326;52.124;5.424;2024-02-16T13:13:46;1.52;;;0.80;;
71975;SDS011;68326;52.124;5.424;2024-02-16T13:16:13;2.35;;;0.93;;
71975;SDS011;68326;52.124;5.424;2024-02-16T13:18:40;2.03;;;0.75;;
71975;SDS011;68326;52.124;5.424;2024-02-16T13:21:07;1.70;;;0.90;;
71975;SDS011;68326;52.124;5.424;2024-02-16T13:23:34;2.47;;;0.87;;
71975;SDS011;68326;52.124;5.424;2024-02-16T13:26:01;3.28;;;0.80;;
71975;SDS011;68326;52.124;5.424;2024-02-16T13:28:27;1.48;;;0.90;;
71975;SDS011;68326;52.124;5.424;2024-02-16T13:30:54;2.10;;;0.80;;
71975;SDS011;68326;52.124;5.424;2024-02-16T13:33:20;2.30;;;0.95;;
71975;SDS011;68326;52.124;5.424;2024-02-16T13:35:47;1.60;;;0.80;;
71975;SDS011;68326;52.124;5.424;2024-02-16T13:38:14;2.17;;;0.80;;
71975;SDS011;68326;52.124;5.424;2024-02-16T13:40:41;2.00;;;0.90;;
71975;SDS011;68326;52.124;5.424;2024-02-16T13:43:09;2.45;;;0.80;;
71975;SDS011;68326;52.124;5.424;2024-02-16T13:45:48;2.88;;;1.02;;
71975;SDS011;68326;52.124;5.424;2024-02-16T13:48:19;2.87;;;0.90;;
71975;SDS011;68326;52.124;5.424;2024-02-16T13:50:47;1.67;;;0.70;;
71975;SDS011;68326;52.124;5.424;2024-02-16T13:53:14;5.93;;;0.90;;
71975;SDS011;68326;52.124;5.424;2024-02-16T13:55:46;1.75;;;0.70;;
71975;SDS011;68326;52.124;5.424;2024-02-16T13:58:13;1.30;;;0.73;;
71975;SDS011;68326;52.124;5.424;2024-02-16T14:00:39;2.97;;;0.80;;
71975;SDS011;68326;52.124;5.424;2024-02-16T14:03:07;1.98;;;0.90;;
71975;SDS011;68326;52.124;5.424;2024-02-16T14:05:36;2.65;;;1.10;;
71975;SDS011;68326;52.124;5.424;2024-02-16T14:08:06;1.48;;;1.02;;
71975;SDS011;68326;52.124;5.424;2024-02-16T14:10:37;1.70;;;0.73;;
71975;SDS011;68326;52.124;5.424;2024-02-16T14:13:04;2.10;;;0.80;;
71975;SDS011;68326;52.124;5.424;2024-02-16T14:15:30;3.58;;;1.20;;
71975;SDS011;68326;52.124;5.424;2024-02-16T14:17:58;3.45;;;0.70;;
71975;SDS011;68326;52.124;5.424;2024-02-16T14:20:34;4.47;;;1.05;;
71975;SDS011;68326;52.124;5.424;2024-02-16T14:23:01;2.75;;;0.98;;
71975;SDS011;68326;52.124;5.424;2024-02-16T14:25:30;2.47;;;0.83;;
71975;SDS011;68326;52.124;5.424;2024-02-16T14:27:56;2.53;;;1.08;;
71975;SDS011;68326;52.124;5.424;2024-02-16T14:30:24;2.42;;;1.08;;
71975;SDS011;68326;52.124;5.424;2024-02-16T14:32:51;1.70;;;0.73;;
71975;SDS011;68326;52.124;5.424;2024-02-16T14:35:20;2.90;;;1.15;;
71975;SDS011;68326;52.124;5.424;2024-02-16T14:37:48;2.43;;;1.20;;
71975;SDS011;68326;52.124;5.424;2024-02-16T14:40:15;3.58;;;1.38;;
71975;SDS011;68326;52.124;5.424;2024-02-16T14:42:42;4.15;;;1.30;;
71975;SDS011;68326;52.124;5.424;2024-02-16T14:45:09;3.13;;;1.58;;
71975;SDS011;68326;52.124;5.424;2024-02-16T14:47:45;2.40;;;1.30;;
71975;SDS011;68326;52.124;5.424;2024-02-16T14:50:12;2.27;;;1.20;;
71975;SDS011;68326;52.124;5.424;2024-02-16T14:52:39;2.78;;;1.20;;